sensor_id;sensor_type;location;lat;lon;timestamp;P1;durP1;ratioP1;P2;durP2;ratioP2
66272;SDS011;58450;52.150;4.466;2023-06-14T00:01:20;4.10;;;2.40;;
66272;SDS011;58450;52.150;4.466;2023-06-14T00:03:49;5.57;;;2.70;;
66272;SDS011;58450;52.150;4.466;2023-06-14T00:06:18;5.45;;;2.70;;
66272;SDS011;58450;52.150;4.466;2023-06-14T00:08:45;6.32;;;2.90;;
66272;SDS011;58450;52.150;4.466;2023-06-14T00:11:13;4.22;;;2.60;;
66272;SDS011;58450;52.150;4.466;2023-06-14T00:13:40;5.18;;;2.65;;
66272;SDS011;58450;52.150;4.466;2023-06-14T00:16:09;5.13;;;2.55;;
66272;SDS011;58450;52.150;4.466;2023-06-14T00:18:37;6.07;;;2.80;;
66272;SDS011;58450;52.150;4.466;2023-06-14T00:21:05;3.80;;;2.72;;
66272;SDS011;58450;52.150;4.466;2023-06-14T00:23:33;4.65;;;2.47;;
66272;SDS011;58450;52.150;4.466;2023-06-14T00:26:00;4.75;;;2.80;;
66272;SDS011;58450;52.150;4.466;2023-06-14T00:28:28;5.60;;;2.78;;
66272;SDS011;58450;52.150;4.466;2023-06-14T00:30:55;6.60;;;2.90;;
66272;SDS011;58450;52.150;4.466;2023-06-14T00:33:23;5.05;;;2.42;;
66272;SDS011;58450;52.150;4.466;2023-06-14T00:35:52;5.38;;;2.40;;
66272;SDS011;58450;52.150;4.466;2023-06-14T00:38:20;6.07;;;2.65;;
66272;SDS011;58450;52.150;4.466;2023-06-14T00:40:48;5.85;;;2.50;;
66272;SDS011;58450;52.150;4.466;2023-06-14T00:43:15;4.70;;;2.60;;
66272;SDS011;58450;52.150;4.466;2023-06-14T00:45:43;5.47;;;2.65;;
66272;SDS011;58450;52.150;4.466;2023-06-14T00:48:10;5.65;;;2.60;;
66272;SDS011;58450;52.150;4.466;2023-06-14T00:50:39;6.30;;;2.50;;
66272;SDS011;58450;52.150;4.466;2023-06-14T00:53:08;5.43;;;2.65;;
66272;SDS011;58450;52.150;4.466;2023-06-14T00:55:36;3.75;;;2.30;;
66272;SDS011;58450;52.150;4.466;2023-06-14T00:58:03;4.25;;;2.28;;
66272;SDS011;58450;52.150;4.466;2023-06-14T01:00:31;4.82;;;2.40;;
66272;SDS011;58450;52.150;4.466;2023-06-14T01:02:59;4.10;;;2.40;;
66272;SDS011;58450;52.150;4.466;2023-06-14T01:05:27;4.68;;;2.40;;
66272;SDS011;58450;52.150;4.466;2023-06-14T01:08:00;4.70;;;2.30;;
66272;SDS011;58450;52.150;4.466;2023-06-14T01:10:47;5.13;;;2.20;;
66272;SDS011;58450;52.150;4.466;2023-06-14T01:13:23;5.13;;;2.38;;
66272;SDS011;58450;52.150;4.466;2023-06-14T01:15:59;5.68;;;2.47;;
66272;SDS011;58450;52.150;4.466;2023-06-14T01:18:28;5.35;;;2.30;;
66272;SDS011;58450;52.150;4.466;2023-06-14T01:20:56;4.60;;;2.20;;
66272;SDS011;58450;52.150;4.466;2023-06-14T01:23:25;3.78;;;2.30;;
66272;SDS011;58450;52.150;4.466;2023-06-14T01:25:58;3.60;;;2.33;;
66272;SDS011;58450;52.150;4.466;2023-06-14T01:28:29;4.50;;;2.35;;
66272;SDS011;58450;52.150;4.466;2023-06-14T01:31:00;5.60;;;2.40;;
66272;SDS011;58450;52.150;4.466;2023-06-14T01:33:30;3.53;;;2.30;;
66272;SDS011;58450;52.150;4.466;2023-06-14T01:36:00;3.35;;;2.22;;
66272;SDS011;58450;52.150;4.466;2023-06-14T01:38:32;4.88;;;2.38;;
66272;SDS011;58450;52.150;4.466;2023-06-14T01:41:00;4.60;;;2.30;;
66272;SDS011;58450;52.150;4.466;2023-06-14T01:43:29;4.53;;;2.28;;
66272;SDS011;58450;52.150;4.466;2023-06-14T01:45:58;3.92;;;2.30;;
66272;SDS011;58450;52.150;4.466;2023-06-14T01:48:27;3.45;;;2.00;;
66272;SDS011;58450;52.150;4.466;2023-06-14T01:50:55;6.43;;;2.33;;
66272;SDS011;58450;52.150;4.466;2023-06-14T01:53:22;4.43;;;2.08;;
66272;SDS011;58450;52.150;4.466;2023-06-14T01:55:51;4.25;;;1.98;;
66272;SDS011;58450;52.150;4.466;2023-06-14T01:58:19;4.47;;;2.08;;
66272;SDS011;58450;52.150;4.466;2023-06-14T02:00:47;4.25;;;2.00;;
66272;SDS011;58450;52.150;4.466;2023-06-14T02:03:15;6.20;;;2.42;;
66272;SDS011;58450;52.150;4.466;2023-06-14T02:05:42;2.22;;;1.80;;
66272;SDS011;58450;52.150;4.466;2023-06-14T02:08:10;3.90;;;2.67;;
66272;SDS011;58450;52.150;4.466;2023-06-14T02:10:37;5.47;;;2.65;;
66272;SDS011;58450;52.150;4.466;2023-06-14T02:13:07;4.60;;;2.22;;
66272;SDS011;58450;52.150;4.466;2023-06-14T02:15:34;4.55;;;2.25;;
66272;SDS011;58450;52.150;4.466;2023-06-14T02:18:02;3.28;;;2.05;;
66272;SDS011;58450;52.150;4.466;2023-06-14T02:20:30;3.38;;;2.20;;
66272;SDS011;58450;52.150;4.466;2023-06-14T02:22:58;4.20;;;2.15;;
66272;SDS011;58450;52.150;4.466;2023-06-14T02:25:25;5.47;;;2.50;;
66272;SDS011;58450;52.150;4.466;2023-06-14T02:27:54;4.15;;;2.30;;
66272;SDS011;58450;52.150;4.466;2023-06-14T02:30:23;3.45;;;2.05;;
66272;SDS011;58450;52.150;4.466;2023-06-14T02:32:50;5.07;;;2.00;;
66272;SDS011;58450;52.150;4.466;2023-06-14T02:35:19;4.90;;;2.40;;
66272;SDS011;58450;52.150;4.466;2023-06-14T02:37:48;5.53;;;2.50;;
66272;SDS011;58450;52.150;4.466;2023-06-14T02:40:16;4.43;;;2.00;;
66272;SDS011;58450;52.150;4.466;2023-06-14T02:42:44;4.25;;;2.15;;
66272;SDS011;58450;52.150;4.466;2023-06-14T02:45:11;3.97;;;1.90;;
66272;SDS011;58450;52.150;4.466;2023-06-14T02:47:40;3.72;;;1.90;;
66272;SDS011;58450;52.150;4.466;2023-06-14T02:50:08;2.95;;;1.98;;
66272;SDS011;58450;52.150;4.466;2023-06-14T02:52:36;5.57;;;2.17;;
66272;SDS011;58450;52.150;4.466;2023-06-14T02:55:04;3.85;;;2.00;;
66272;SDS011;58450;52.150;4.466;2023-06-14T02:57:34;3.65;;;2.30;;
66272;SDS011;58450;52.150;4.466;2023-06-14T03:00:01;4.95;;;2.10;;
66272;SDS011;58450;52.150;4.466;2023-06-14T03:02:30;4.47;;;2.40;;
66272;SDS011;58450;52.150;4.466;2023-06-14T03:04:58;5.78;;;2.47;;
66272;SDS011;58450;52.150;4.466;2023-06-14T03:07:28;3.97;;;2.15;;
66272;SDS011;58450;52.150;4.466;2023-06-14T03:09:55;4.07;;;2.10;;
66272;SDS011;58450;52.150;4.466;2023-06-14T03:12:23;5.47;;;2.05;;
66272;SDS011;58450;52.150;4.466;2023-06-14T03:14:50;6.07;;;2.40;;
66272;SDS011;58450;52.150;4.466;2023-06-14T03:17:19;4.40;;;2.05;;
66272;SDS011;58450;52.150;4.466;2023-06-14T03:19:46;5.55;;;2.38;;
66272;SDS011;58450;52.150;4.466;2023-06-14T03:22:15;3.55;;;2.00;;
66272;SDS011;58450;52.150;4.466;2023-06-14T03:24:43;3.45;;;2.03;;
66272;SDS011;58450;52.150;4.466;2023-06-14T03:27:10;4.85;;;2.42;;
66272;SDS011;58450;52.150;4.466;2023-06-14T03:29:38;4.82;;;2.00;;
66272;SDS011;58450;52.150;4.466;2023-06-14T03:32:06;3.08;;;2.15;;
66272;SDS011;58450;52.150;4.466;2023-06-14T03:34:34;4.25;;;2.13;;
66272;SDS011;58450;52.150;4.466;2023-06-14T03:37:04;3.80;;;1.90;;
66272;SDS011;58450;52.150;4.466;2023-06-14T03:39:33;4.50;;;2.22;;
66272;SDS011;58450;52.150;4.466;2023-06-14T03:42:01;4.53;;;2.08;;
66272;SDS011;58450;52.150;4.466;2023-06-14T03:44:29;3.45;;;2.13;;
66272;SDS011;58450;52.150;4.466;2023-06-14T03:46:56;3.25;;;1.98;;
66272;SDS011;58450;52.150;4.466;2023-06-14T03:49:24;4.80;;;2.05;;
66272;SDS011;58450;52.150;4.466;2023-06-14T03:51:52;3.25;;;1.92;;
66272;SDS011;58450;52.150;4.466;2023-06-14T03:54:19;4.13;;;2.10;;
66272;SDS011;58450;52.150;4.466;2023-06-14T03:56:48;6.20;;;2.30;;
66272;SDS011;58450;52.150;4.466;2023-06-14T03:59:16;5.05;;;2.20;;
66272;SDS011;58450;52.150;4.466;2023-06-14T04:01:43;3.85;;;2.15;;
66272;SDS011;58450;52.150;4.466;2023-06-14T04:04:12;5.82;;;2.10;;
66272;SDS011;58450;52.150;4.466;2023-06-14T04:06:42;4.45;;;2.08;;
66272;SDS011;58450;52.150;4.466;2023-06-14T04:09:09;3.33;;;2.03;;
66272;SDS011;58450;52.150;4.466;2023-06-14T04:11:37;3.88;;;2.00;;
66272;SDS011;58450;52.150;4.466;2023-06-14T04:14:06;5.00;;;2.20;;
66272;SDS011;58450;52.150;4.466;2023-06-14T04:16:33;3.42;;;1.80;;
66272;SDS011;58450;52.150;4.466;2023-06-14T04:19:01;3.40;;;2.10;;
66272;SDS011;58450;52.150;4.466;2023-06-14T04:21:28;3.65;;;1.90;;
66272;SDS011;58450;52.150;4.466;2023-06-14T04:23:56;6.25;;;2.13;;
66272;SDS011;58450;52.150;4.466;2023-06-14T04:26:23;4.75;;;2.10;;
66272;SDS011;58450;52.150;4.466;2023-06-14T04:28:55;3.85;;;2.35;;
66272;SDS011;58450;52.150;4.466;2023-06-14T04:31:29;3.72;;;2.08;;
66272;SDS011;58450;52.150;4.466;2023-06-14T04:33:59;7.20;;;2.63;;
66272;SDS011;58450;52.150;4.466;2023-06-14T04:36:26;4.63;;;2.20;;
66272;SDS011;58450;52.150;4.466;2023-06-14T04:38:54;5.10;;;1.92;;
66272;SDS011;58450;52.150;4.466;2023-06-14T04:41:21;4.35;;;2.05;;
66272;SDS011;58450;52.150;4.466;2023-06-14T04:43:56;3.65;;;2.15;;
66272;SDS011;58450;52.150;4.466;2023-06-14T04:46:28;3.17;;;1.88;;
66272;SDS011;58450;52.150;4.466;2023-06-14T04:48:57;4.00;;;1.83;;
66272;SDS011;58450;52.150;4.466;2023-06-14T04:51:28;4.60;;;2.03;;
66272;SDS011;58450;52.150;4.466;2023-06-14T04:53:56;3.70;;;1.80;;
66272;SDS011;58450;52.150;4.466;2023-06-14T04:56:24;3.70;;;2.10;;
66272;SDS011;58450;52.150;4.466;2023-06-14T04:58:52;2.78;;;1.85;;
66272;SDS011;58450;52.150;4.466;2023-06-14T05:01:22;4.53;;;1.90;;
66272;SDS011;58450;52.150;4.466;2023-06-14T05:03:51;3.40;;;1.92;;
66272;SDS011;58450;52.150;4.466;2023-06-14T05:06:19;4.32;;;2.13;;
66272;SDS011;58450;52.150;4.466;2023-06-14T05:08:47;3.45;;;1.65;;
66272;SDS011;58450;52.150;4.466;2023-06-14T05:11:14;6.47;;;2.47;;
66272;SDS011;58450;52.150;4.466;2023-06-14T05:13:42;5.00;;;2.00;;
66272;SDS011;58450;52.150;4.466;2023-06-14T05:16:10;5.88;;;2.00;;
66272;SDS011;58450;52.150;4.466;2023-06-14T05:18:38;3.95;;;2.10;;
66272;SDS011;58450;52.150;4.466;2023-06-14T05:21:07;3.67;;;1.80;;
66272;SDS011;58450;52.150;4.466;2023-06-14T05:23:34;3.97;;;2.20;;
66272;SDS011;58450;52.150;4.466;2023-06-14T05:26:02;4.63;;;2.25;;
66272;SDS011;58450;52.150;4.466;2023-06-14T05:28:30;4.72;;;1.83;;
66272;SDS011;58450;52.150;4.466;2023-06-14T05:30:57;6.78;;;1.90;;
66272;SDS011;58450;52.150;4.466;2023-06-14T05:33:25;4.82;;;1.90;;
66272;SDS011;58450;52.150;4.466;2023-06-14T05:35:53;3.05;;;1.77;;
66272;SDS011;58450;52.150;4.466;2023-06-14T05:38:22;4.88;;;2.28;;
66272;SDS011;58450;52.150;4.466;2023-06-14T05:40:49;4.90;;;1.95;;
66272;SDS011;58450;52.150;4.466;2023-06-14T05:43:17;4.38;;;1.80;;
66272;SDS011;58450;52.150;4.466;2023-06-14T05:45:44;4.15;;;2.10;;
66272;SDS011;58450;52.150;4.466;2023-06-14T05:48:12;5.22;;;2.10;;
66272;SDS011;58450;52.150;4.466;2023-06-14T05:50:39;5.88;;;2.20;;
66272;SDS011;58450;52.150;4.466;2023-06-14T05:53:07;5.40;;;2.00;;
66272;SDS011;58450;52.150;4.466;2023-06-14T05:55:36;5.15;;;1.90;;
66272;SDS011;58450;52.150;4.466;2023-06-14T05:58:03;4.53;;;2.10;;
66272;SDS011;58450;52.150;4.466;2023-06-14T06:00:30;3.63;;;2.00;;
66272;SDS011;58450;52.150;4.466;2023-06-14T06:02:58;3.03;;;1.70;;
66272;SDS011;58450;52.150;4.466;2023-06-14T06:05:26;3.28;;;1.90;;
66272;SDS011;58450;52.150;4.466;2023-06-14T06:07:54;5.13;;;2.10;;
66272;SDS011;58450;52.150;4.466;2023-06-14T06:10:21;4.25;;;1.90;;
66272;SDS011;58450;52.150;4.466;2023-06-14T06:12:50;5.18;;;1.90;;
66272;SDS011;58450;52.150;4.466;2023-06-14T06:15:18;4.65;;;1.65;;
66272;SDS011;58450;52.150;4.466;2023-06-14T06:17:45;3.95;;;1.88;;
66272;SDS011;58450;52.150;4.466;2023-06-14T06:20:13;5.78;;;2.30;;
66272;SDS011;58450;52.150;4.466;2023-06-14T06:22:40;5.35;;;1.95;;
66272;SDS011;58450;52.150;4.466;2023-06-14T06:25:08;4.90;;;2.03;;
66272;SDS011;58450;52.150;4.466;2023-06-14T06:27:36;4.57;;;2.00;;
66272;SDS011;58450;52.150;4.466;2023-06-14T06:30:07;3.05;;;1.58;;
66272;SDS011;58450;52.150;4.466;2023-06-14T06:32:36;3.72;;;1.88;;
66272;SDS011;58450;52.150;4.466;2023-06-14T06:35:04;2.85;;;1.70;;
66272;SDS011;58450;52.150;4.466;2023-06-14T06:37:34;5.43;;;2.03;;
66272;SDS011;58450;52.150;4.466;2023-06-14T06:40:02;3.63;;;1.83;;
66272;SDS011;58450;52.150;4.466;2023-06-14T06:42:31;3.55;;;1.73;;
66272;SDS011;58450;52.150;4.466;2023-06-14T06:44:59;4.18;;;1.90;;
66272;SDS011;58450;52.150;4.466;2023-06-14T06:47:28;2.88;;;1.73;;
66272;SDS011;58450;52.150;4.466;2023-06-14T06:49:55;4.40;;;2.00;;
66272;SDS011;58450;52.150;4.466;2023-06-14T06:52:23;5.55;;;1.90;;
66272;SDS011;58450;52.150;4.466;2023-06-14T06:54:50;5.13;;;2.50;;
66272;SDS011;58450;52.150;4.466;2023-06-14T06:57:20;5.25;;;2.20;;
66272;SDS011;58450;52.150;4.466;2023-06-14T06:59:49;2.80;;;1.67;;
66272;SDS011;58450;52.150;4.466;2023-06-14T07:02:16;2.67;;;1.45;;
66272;SDS011;58450;52.150;4.466;2023-06-14T07:04:46;3.38;;;2.00;;
66272;SDS011;58450;52.150;4.466;2023-06-14T07:07:13;4.43;;;1.92;;
66272;SDS011;58450;52.150;4.466;2023-06-14T07:09:41;4.53;;;2.00;;
66272;SDS011;58450;52.150;4.466;2023-06-14T07:12:08;2.30;;;1.80;;
66272;SDS011;58450;52.150;4.466;2023-06-14T07:14:37;5.70;;;2.00;;
66272;SDS011;58450;52.150;4.466;2023-06-14T07:17:05;1.75;;;1.40;;
66272;SDS011;58450;52.150;4.466;2023-06-14T07:19:32;2.28;;;1.67;;
66272;SDS011;58450;52.150;4.466;2023-06-14T07:22:01;4.05;;;1.85;;
66272;SDS011;58450;52.150;4.466;2023-06-14T07:24:29;4.32;;;1.90;;
66272;SDS011;58450;52.150;4.466;2023-06-14T07:26:56;3.95;;;1.98;;
66272;SDS011;58450;52.150;4.466;2023-06-14T07:29:23;2.97;;;1.75;;
66272;SDS011;58450;52.150;4.466;2023-06-14T07:31:52;3.05;;;1.90;;
66272;SDS011;58450;52.150;4.466;2023-06-14T07:34:19;3.08;;;1.85;;
66272;SDS011;58450;52.150;4.466;2023-06-14T07:36:47;3.38;;;1.80;;
66272;SDS011;58450;52.150;4.466;2023-06-14T07:39:16;2.95;;;1.70;;
66272;SDS011;58450;52.150;4.466;2023-06-14T07:41:43;2.58;;;1.67;;
66272;SDS011;58450;52.150;4.466;2023-06-14T07:44:11;4.05;;;1.77;;
66272;SDS011;58450;52.150;4.466;2023-06-14T07:46:39;3.95;;;1.83;;
66272;SDS011;58450;52.150;4.466;2023-06-14T07:49:06;3.47;;;1.80;;
66272;SDS011;58450;52.150;4.466;2023-06-14T07:51:34;3.92;;;1.90;;
66272;SDS011;58450;52.150;4.466;2023-06-14T07:54:01;2.90;;;1.95;;
66272;SDS011;58450;52.150;4.466;2023-06-14T07:56:31;3.55;;;1.92;;
66272;SDS011;58450;52.150;4.466;2023-06-14T07:58:59;3.78;;;1.88;;
66272;SDS011;58450;52.150;4.466;2023-06-14T08:01:27;5.70;;;2.03;;
66272;SDS011;58450;52.150;4.466;2023-06-14T08:03:54;4.25;;;2.10;;
66272;SDS011;58450;52.150;4.466;2023-06-14T08:06:22;4.28;;;1.85;;
66272;SDS011;58450;52.150;4.466;2023-06-14T08:08:49;3.53;;;2.00;;
66272;SDS011;58450;52.150;4.466;2023-06-14T08:11:17;4.63;;;1.98;;
66272;SDS011;58450;52.150;4.466;2023-06-14T08:13:45;3.13;;;1.75;;
66272;SDS011;58450;52.150;4.466;2023-06-14T08:16:13;3.35;;;2.00;;
66272;SDS011;58450;52.150;4.466;2023-06-14T08:18:40;4.22;;;2.15;;
66272;SDS011;58450;52.150;4.466;2023-06-14T08:21:08;4.97;;;1.92;;
66272;SDS011;58450;52.150;4.466;2023-06-14T08:23:35;4.57;;;1.80;;
66272;SDS011;58450;52.150;4.466;2023-06-14T08:26:03;3.13;;;1.70;;
66272;SDS011;58450;52.150;4.466;2023-06-14T08:28:31;2.63;;;1.80;;
66272;SDS011;58450;52.150;4.466;2023-06-14T08:31:00;5.95;;;1.80;;
66272;SDS011;58450;52.150;4.466;2023-06-14T08:33:27;4.20;;;1.90;;
66272;SDS011;58450;52.150;4.466;2023-06-14T08:35:55;4.82;;;1.90;;
66272;SDS011;58450;52.150;4.466;2023-06-14T08:38:23;3.47;;;1.95;;
66272;SDS011;58450;52.150;4.466;2023-06-14T08:40:50;2.80;;;1.92;;
66272;SDS011;58450;52.150;4.466;2023-06-14T08:43:23;4.43;;;1.80;;
66272;SDS011;58450;52.150;4.466;2023-06-14T08:45:52;3.95;;;1.92;;
66272;SDS011;58450;52.150;4.466;2023-06-14T08:48:27;3.38;;;1.98;;
66272;SDS011;58450;52.150;4.466;2023-06-14T08:50:55;4.22;;;2.10;;
66272;SDS011;58450;52.150;4.466;2023-06-14T08:53:27;6.38;;;2.00;;
66272;SDS011;58450;52.150;4.466;2023-06-14T08:55:57;4.78;;;1.80;;
66272;SDS011;58450;52.150;4.466;2023-06-14T08:58:27;5.88;;;2.00;;
66272;SDS011;58450;52.150;4.466;2023-06-14T09:00:57;3.05;;;1.73;;
66272;SDS011;58450;52.150;4.466;2023-06-14T09:03:26;5.15;;;2.00;;
66272;SDS011;58450;52.150;4.466;2023-06-14T09:05:56;4.03;;;1.83;;
66272;SDS011;58450;52.150;4.466;2023-06-14T09:08:25;5.15;;;2.00;;
66272;SDS011;58450;52.150;4.466;2023-06-14T09:10:53;3.00;;;1.92;;
66272;SDS011;58450;52.150;4.466;2023-06-14T09:13:21;3.50;;;1.88;;
66272;SDS011;58450;52.150;4.466;2023-06-14T09:15:49;3.03;;;1.88;;
66272;SDS011;58450;52.150;4.466;2023-06-14T09:18:17;5.55;;;2.00;;
66272;SDS011;58450;52.150;4.466;2023-06-14T09:20:47;4.75;;;2.08;;
66272;SDS011;58450;52.150;4.466;2023-06-14T09:23:17;3.92;;;1.80;;
66272;SDS011;58450;52.150;4.466;2023-06-14T09:25:48;4.72;;;1.90;;
66272;SDS011;58450;52.150;4.466;2023-06-14T09:28:17;3.03;;;1.75;;
66272;SDS011;58450;52.150;4.466;2023-06-14T09:30:45;3.72;;;1.85;;
66272;SDS011;58450;52.150;4.466;2023-06-14T09:33:16;2.97;;;1.90;;
66272;SDS011;58450;52.150;4.466;2023-06-14T09:35:45;3.95;;;2.03;;
66272;SDS011;58450;52.150;4.466;2023-06-14T09:38:14;3.15;;;1.88;;
66272;SDS011;58450;52.150;4.466;2023-06-14T09:40:41;6.10;;;1.92;;
66272;SDS011;58450;52.150;4.466;2023-06-14T09:43:09;3.80;;;1.90;;
66272;SDS011;58450;52.150;4.466;2023-06-14T09:45:37;3.38;;;1.80;;
66272;SDS011;58450;52.150;4.466;2023-06-14T09:48:06;3.97;;;1.63;;
66272;SDS011;58450;52.150;4.466;2023-06-14T09:50:35;2.83;;;1.48;;
66272;SDS011;58450;52.150;4.466;2023-06-14T09:53:02;2.08;;;1.55;;
66272;SDS011;58450;52.150;4.466;2023-06-14T09:55:37;3.85;;;1.50;;
66272;SDS011;58450;52.150;4.466;2023-06-14T09:58:08;1.85;;;1.42;;
66272;SDS011;58450;52.150;4.466;2023-06-14T10:00:39;4.03;;;1.70;;
66272;SDS011;58450;52.150;4.466;2023-06-14T10:03:11;3.70;;;1.70;;
66272;SDS011;58450;52.150;4.466;2023-06-14T10:05:41;2.97;;;1.65;;
66272;SDS011;58450;52.150;4.466;2023-06-14T10:08:13;2.70;;;1.50;;
66272;SDS011;58450;52.150;4.466;2023-06-14T10:10:45;6.40;;;1.52;;
66272;SDS011;58450;52.150;4.466;2023-06-14T10:13:14;3.03;;;1.45;;
66272;SDS011;58450;52.150;4.466;2023-06-14T10:15:52;2.83;;;1.40;;
66272;SDS011;58450;52.150;4.466;2023-06-14T10:18:30;2.45;;;1.52;;
66272;SDS011;58450;52.150;4.466;2023-06-14T10:21:08;2.35;;;1.60;;
66272;SDS011;58450;52.150;4.466;2023-06-14T10:23:48;2.67;;;1.65;;
66272;SDS011;58450;52.150;4.466;2023-06-14T10:26:23;2.63;;;1.38;;
66272;SDS011;58450;52.150;4.466;2023-06-14T10:29:00;3.25;;;1.50;;
66272;SDS011;58450;52.150;4.466;2023-06-14T10:31:40;1.90;;;1.30;;
66272;SDS011;58450;52.150;4.466;2023-06-14T10:34:10;1.67;;;1.23;;
66272;SDS011;58450;52.150;4.466;2023-06-14T10:36:41;2.72;;;1.38;;
66272;SDS011;58450;52.150;4.466;2023-06-14T10:39:15;1.73;;;1.20;;
66272;SDS011;58450;52.150;4.466;2023-06-14T10:41:51;2.28;;;1.08;;
66272;SDS011;58450;52.150;4.466;2023-06-14T10:44:33;2.83;;;1.30;;
66272;SDS011;58450;52.150;4.466;2023-06-14T10:47:10;1.58;;;1.30;;
66272;SDS011;58450;52.150;4.466;2023-06-14T10:49:49;1.55;;;1.20;;
66272;SDS011;58450;52.150;4.466;2023-06-14T10:52:25;3.47;;;1.17;;
66272;SDS011;58450;52.150;4.466;2023-06-14T10:57:42;3.05;;;1.30;;
66272;SDS011;58450;52.150;4.466;2023-06-14T11:00:13;2.92;;;1.30;;
66272;SDS011;58450;52.150;4.466;2023-06-14T11:06:14;3.00;;;1.38;;
66272;SDS011;58450;52.150;4.466;2023-06-14T11:12:07;1.58;;;1.27;;
66272;SDS011;58450;52.150;4.466;2023-06-14T11:14:39;2.65;;;1.23;;
66272;SDS011;58450;52.150;4.466;2023-06-14T11:17:06;1.90;;;1.20;;
66272;SDS011;58450;52.150;4.466;2023-06-14T11:19:34;2.38;;;1.23;;
66272;SDS011;58450;52.150;4.466;2023-06-14T11:22:02;2.22;;;1.30;;
66272;SDS011;58450;52.150;4.466;2023-06-14T11:24:29;2.22;;;1.10;;
66272;SDS011;58450;52.150;4.466;2023-06-14T11:26:59;1.85;;;1.10;;
66272;SDS011;58450;52.150;4.466;2023-06-14T11:29:28;2.42;;;1.15;;
66272;SDS011;58450;52.150;4.466;2023-06-14T11:31:58;1.75;;;1.20;;
66272;SDS011;58450;52.150;4.466;2023-06-14T11:34:25;1.30;;;1.02;;
66272;SDS011;58450;52.150;4.466;2023-06-14T11:36:53;1.55;;;1.10;;
66272;SDS011;58450;52.150;4.466;2023-06-14T11:39:23;1.85;;;1.20;;
66272;SDS011;58450;52.150;4.466;2023-06-14T11:41:53;1.75;;;1.17;;
66272;SDS011;58450;52.150;4.466;2023-06-14T11:44:21;2.58;;;1.20;;
66272;SDS011;58450;52.150;4.466;2023-06-14T11:46:48;2.20;;;1.10;;
66272;SDS011;58450;52.150;4.466;2023-06-14T11:49:17;1.65;;;1.30;;
66272;SDS011;58450;52.150;4.466;2023-06-14T11:51:45;2.20;;;1.05;;
66272;SDS011;58450;52.150;4.466;2023-06-14T11:54:13;1.70;;;1.10;;
66272;SDS011;58450;52.150;4.466;2023-06-14T11:56:41;3.13;;;1.20;;
66272;SDS011;58450;52.150;4.466;2023-06-14T11:59:09;5.10;;;1.20;;
66272;SDS011;58450;52.150;4.466;2023-06-14T12:01:36;1.90;;;1.27;;
66272;SDS011;58450;52.150;4.466;2023-06-14T12:04:05;1.95;;;1.10;;
66272;SDS011;58450;52.150;4.466;2023-06-14T12:06:34;2.03;;;1.13;;
66272;SDS011;58450;52.150;4.466;2023-06-14T12:09:05;1.58;;;1.05;;
66272;SDS011;58450;52.150;4.466;2023-06-14T12:11:38;1.45;;;0.90;;
66272;SDS011;58450;52.150;4.466;2023-06-14T12:14:06;2.40;;;1.05;;
66272;SDS011;58450;52.150;4.466;2023-06-14T12:16:36;4.30;;;1.27;;
66272;SDS011;58450;52.150;4.466;2023-06-14T12:19:12;3.05;;;1.20;;
66272;SDS011;58450;52.150;4.466;2023-06-14T12:21:43;1.58;;;1.10;;
66272;SDS011;58450;52.150;4.466;2023-06-14T12:24:14;1.67;;;0.90;;
66272;SDS011;58450;52.150;4.466;2023-06-14T12:26:41;1.33;;;1.20;;
66272;SDS011;58450;52.150;4.466;2023-06-14T12:29:09;1.88;;;1.30;;
66272;SDS011;58450;52.150;4.466;2023-06-14T12:31:38;1.77;;;1.23;;
66272;SDS011;58450;52.150;4.466;2023-06-14T12:34:05;2.03;;;1.10;;
66272;SDS011;58450;52.150;4.466;2023-06-14T12:36:33;1.98;;;1.20;;
66272;SDS011;58450;52.150;4.466;2023-06-14T12:39:07;2.60;;;1.20;;
66272;SDS011;58450;52.150;4.466;2023-06-14T12:41:35;3.22;;;1.33;;
66272;SDS011;58450;52.150;4.466;2023-06-14T12:44:03;1.30;;;0.98;;
66272;SDS011;58450;52.150;4.466;2023-06-14T12:46:31;1.50;;;1.13;;
66272;SDS011;58450;52.150;4.466;2023-06-14T12:48:58;2.88;;;1.02;;
66272;SDS011;58450;52.150;4.466;2023-06-14T12:51:26;2.70;;;1.20;;
66272;SDS011;58450;52.150;4.466;2023-06-14T12:53:53;1.70;;;0.85;;
66272;SDS011;58450;52.150;4.466;2023-06-14T12:56:23;1.85;;;1.20;;
66272;SDS011;58450;52.150;4.466;2023-06-14T12:58:52;5.07;;;1.30;;
66272;SDS011;58450;52.150;4.466;2023-06-14T13:01:19;3.42;;;1.20;;
66272;SDS011;58450;52.150;4.466;2023-06-14T13:03:47;2.28;;;1.33;;
66272;SDS011;58450;52.150;4.466;2023-06-14T13:06:17;1.38;;;1.05;;
66272;SDS011;58450;52.150;4.466;2023-06-14T13:08:44;2.97;;;1.10;;
66272;SDS011;58450;52.150;4.466;2023-06-14T13:11:12;2.05;;;1.05;;
66272;SDS011;58450;52.150;4.466;2023-06-14T13:13:41;1.15;;;0.98;;
66272;SDS011;58450;52.150;4.466;2023-06-14T13:16:09;1.23;;;0.93;;
66272;SDS011;58450;52.150;4.466;2023-06-14T13:18:38;2.17;;;0.93;;
66272;SDS011;58450;52.150;4.466;2023-06-14T13:21:06;2.15;;;1.00;;
66272;SDS011;58450;52.150;4.466;2023-06-14T13:23:33;1.17;;;0.93;;
66272;SDS011;58450;52.150;4.466;2023-06-14T13:26:00;1.30;;;1.10;;
66272;SDS011;58450;52.150;4.466;2023-06-14T13:28:28;2.78;;;1.00;;
66272;SDS011;58450;52.150;4.466;2023-06-14T13:30:58;1.35;;;1.10;;
66272;SDS011;58450;52.150;4.466;2023-06-14T13:33:26;2.30;;;1.10;;
66272;SDS011;58450;52.150;4.466;2023-06-14T13:35:54;1.00;;;0.90;;
66272;SDS011;58450;52.150;4.466;2023-06-14T13:38:21;1.45;;;1.00;;
66272;SDS011;58450;52.150;4.466;2023-06-14T13:40:48;2.25;;;0.93;;
66272;SDS011;58450;52.150;4.466;2023-06-14T13:43:16;3.13;;;1.10;;
66272;SDS011;58450;52.150;4.466;2023-06-14T13:45:43;1.30;;;1.00;;
66272;SDS011;58450;52.150;4.466;2023-06-14T13:48:12;1.83;;;1.10;;
66272;SDS011;58450;52.150;4.466;2023-06-14T13:50:40;1.98;;;1.10;;
66272;SDS011;58450;52.150;4.466;2023-06-14T13:53:08;1.67;;;1.00;;
66272;SDS011;58450;52.150;4.466;2023-06-14T13:55:35;1.40;;;0.95;;
66272;SDS011;58450;52.150;4.466;2023-06-14T13:58:03;2.22;;;0.95;;
66272;SDS011;58450;52.150;4.466;2023-06-14T14:00:30;2.45;;;1.13;;
66272;SDS011;58450;52.150;4.466;2023-06-14T14:02:58;2.40;;;1.23;;
66272;SDS011;58450;52.150;4.466;2023-06-14T14:05:27;2.70;;;1.27;;
66272;SDS011;58450;52.150;4.466;2023-06-14T14:07:55;2.40;;;1.35;;
66272;SDS011;58450;52.150;4.466;2023-06-14T14:10:23;2.85;;;1.10;;
66272;SDS011;58450;52.150;4.466;2023-06-14T14:12:51;2.65;;;1.30;;
66272;SDS011;58450;52.150;4.466;2023-06-14T14:15:20;1.50;;;1.10;;
66272;SDS011;58450;52.150;4.466;2023-06-14T14:17:48;2.25;;;1.17;;
66272;SDS011;58450;52.150;4.466;2023-06-14T14:20:15;3.53;;;1.20;;
66272;SDS011;58450;52.150;4.466;2023-06-14T14:22:44;3.35;;;1.10;;
66272;SDS011;58450;52.150;4.466;2023-06-14T14:25:12;2.50;;;1.10;;
66272;SDS011;58450;52.150;4.466;2023-06-14T14:27:39;2.85;;;1.30;;
66272;SDS011;58450;52.150;4.466;2023-06-14T14:30:07;2.35;;;1.23;;
66272;SDS011;58450;52.150;4.466;2023-06-14T14:32:36;1.67;;;1.15;;
66272;SDS011;58450;52.150;4.466;2023-06-14T14:35:04;2.90;;;1.30;;
66272;SDS011;58450;52.150;4.466;2023-06-14T14:37:32;2.45;;;1.00;;
66272;SDS011;58450;52.150;4.466;2023-06-14T14:40:01;2.92;;;1.10;;
66272;SDS011;58450;52.150;4.466;2023-06-14T14:42:29;2.60;;;1.10;;
66272;SDS011;58450;52.150;4.466;2023-06-14T14:44:57;1.90;;;1.25;;
66272;SDS011;58450;52.150;4.466;2023-06-14T14:47:24;1.98;;;1.02;;
66272;SDS011;58450;52.150;4.466;2023-06-14T14:49:52;1.73;;;1.10;;
66272;SDS011;58450;52.150;4.466;2023-06-14T14:52:19;1.92;;;1.20;;
66272;SDS011;58450;52.150;4.466;2023-06-14T14:54:47;2.22;;;1.10;;
66272;SDS011;58450;52.150;4.466;2023-06-14T14:57:16;1.80;;;1.23;;
66272;SDS011;58450;52.150;4.466;2023-06-14T14:59:43;2.90;;;1.10;;
66272;SDS011;58450;52.150;4.466;2023-06-14T15:02:11;1.83;;;1.20;;
66272;SDS011;58450;52.150;4.466;2023-06-14T15:04:38;2.50;;;1.27;;
66272;SDS011;58450;52.150;4.466;2023-06-14T15:07:06;1.88;;;1.17;;